sensor_id;sensor_type;location;lat;lon;timestamp;P1;durP1;ratioP1;P2;durP2;ratioP2
9763;SDS011;4921;43.214;27.936;2023-04-03T00:02:04;5.70;;;4.13;;
9763;SDS011;4921;43.214;27.936;2023-04-03T00:04:31;6.97;;;3.83;;
9763;SDS011;4921;43.214;27.936;2023-04-03T00:06:58;4.53;;;3.73;;
9763;SDS011;4921;43.214;27.936;2023-04-03T00:09:25;4.37;;;3.83;;
9763;SDS011;4921;43.214;27.936;2023-04-03T00:11:52;5.63;;;3.70;;
9763;SDS011;4921;43.214;27.936;2023-04-03T00:14:20;5.03;;;3.33;;
9763;SDS011;4921;43.214;27.936;2023-04-03T00:16:47;4.43;;;3.87;;
9763;SDS011;4921;43.214;27.936;2023-04-03T00:19:14;4.30;;;3.90;;
9763;SDS011;4921;43.214;27.936;2023-04-03T00:21:41;4.23;;;3.67;;
9763;SDS011;4921;43.214;27.936;2023-04-03T00:24:08;6.53;;;5.23;;
9763;SDS011;4921;43.214;27.936;2023-04-03T00:26:35;4.73;;;4.33;;
9763;SDS011;4921;43.214;27.936;2023-04-03T00:29:02;5.27;;;4.87;;
9763;SDS011;4921;43.214;27.936;2023-04-03T00:31:30;6.90;;;4.93;;
9763;SDS011;4921;43.214;27.936;2023-04-03T00:33:57;5.30;;;4.80;;
9763;SDS011;4921;43.214;27.936;2023-04-03T00:36:25;5.93;;;4.93;;
9763;SDS011;4921;43.214;27.936;2023-04-03T00:38:52;6.83;;;4.67;;
9763;SDS011;4921;43.214;27.936;2023-04-03T00:41:18;4.83;;;4.33;;
9763;SDS011;4921;43.214;27.936;2023-04-03T00:43:46;10.70;;;4.67;;
9763;SDS011;4921;43.214;27.936;2023-04-03T00:46:13;4.00;;;3.60;;
9763;SDS011;4921;43.214;27.936;2023-04-03T00:48:42;9.63;;;4.30;;
9763;SDS011;4921;43.214;27.936;2023-04-03T00:51:13;9.87;;;4.37;;
9763;SDS011;4921;43.214;27.936;2023-04-03T00:53:43;5.93;;;4.47;;
9763;SDS011;4921;43.214;27.936;2023-04-03T00:56:13;5.77;;;4.30;;
9763;SDS011;4921;43.214;27.936;2023-04-03T00:58:43;5.87;;;4.43;;
9763;SDS011;4921;43.214;27.936;2023-04-03T01:01:15;7.37;;;4.60;;
9763;SDS011;4921;43.214;27.936;2023-04-03T01:03:46;6.17;;;4.60;;
9763;SDS011;4921;43.214;27.936;2023-04-03T01:06:13;4.83;;;4.43;;
9763;SDS011;4921;43.214;27.936;2023-04-03T01:08:43;5.17;;;4.30;;
9763;SDS011;4921;43.214;27.936;2023-04-03T01:11:12;9.87;;;4.90;;
9763;SDS011;4921;43.214;27.936;2023-04-03T01:13:38;8.03;;;4.40;;
9763;SDS011;4921;43.214;27.936;2023-04-03T01:16:06;6.20;;;4.57;;
9763;SDS011;4921;43.214;27.936;2023-04-03T01:18:33;7.97;;;5.07;;
9763;SDS011;4921;43.214;27.936;2023-04-03T01:21:15;6.30;;;4.73;;
9763;SDS011;4921;43.214;27.936;2023-04-03T01:23:59;5.37;;;4.87;;
9763;SDS011;4921;43.214;27.936;2023-04-03T01:26:39;5.37;;;4.80;;
9763;SDS011;4921;43.214;27.936;2023-04-03T01:29:06;5.30;;;4.80;;
9763;SDS011;4921;43.214;27.936;2023-04-03T01:31:46;7.63;;;5.23;;
9763;SDS011;4921;43.214;27.936;2023-04-03T01:34:15;7.20;;;5.07;;
9763;SDS011;4921;43.214;27.936;2023-04-03T01:36:42;7.03;;;5.37;;
9763;SDS011;4921;43.214;27.936;2023-04-03T01:39:09;6.13;;;5.50;;
9763;SDS011;4921;43.214;27.936;2023-04-03T01:41:36;8.33;;;5.37;;
9763;SDS011;4921;43.214;27.936;2023-04-03T01:44:03;6.73;;;5.50;;
9763;SDS011;4921;43.214;27.936;2023-04-03T01:46:30;7.80;;;5.20;;
9763;SDS011;4921;43.214;27.936;2023-04-03T01:48:59;5.83;;;5.00;;
9763;SDS011;4921;43.214;27.936;2023-04-03T01:51:26;6.93;;;5.33;;
9763;SDS011;4921;43.214;27.936;2023-04-03T01:53:53;14.50;;;6.30;;
9763;SDS011;4921;43.214;27.936;2023-04-03T01:56:20;7.97;;;6.50;;
9763;SDS011;4921;43.214;27.936;2023-04-03T01:58:47;9.43;;;6.50;;
9763;SDS011;4921;43.214;27.936;2023-04-03T02:01:14;12.67;;;7.93;;
9763;SDS011;4921;43.214;27.936;2023-04-03T02:03:41;15.20;;;9.00;;
9763;SDS011;4921;43.214;27.936;2023-04-03T02:06:09;12.60;;;9.87;;
9763;SDS011;4921;43.214;27.936;2023-04-03T02:08:36;19.40;;;11.60;;
9763;SDS011;4921;43.214;27.936;2023-04-03T02:11:03;13.83;;;10.47;;
9763;SDS011;4921;43.214;27.936;2023-04-03T02:13:30;16.70;;;13.93;;
9763;SDS011;4921;43.214;27.936;2023-04-03T02:15:57;18.90;;;15.23;;
9763;SDS011;4921;43.214;27.936;2023-04-03T02:18:24;24.50;;;21.40;;
9763;SDS011;4921;43.214;27.936;2023-04-03T02:20:51;32.63;;;24.00;;
9763;SDS011;4921;43.214;27.936;2023-04-03T02:23:20;37.03;;;27.50;;
9763;SDS011;4921;43.214;27.936;2023-04-03T02:25:47;35.57;;;26.63;;
9763;SDS011;4921;43.214;27.936;2023-04-03T02:28:14;43.87;;;29.13;;
9763;SDS011;4921;43.214;27.936;2023-04-03T02:30:41;48.67;;;30.70;;
9763;SDS011;4921;43.214;27.936;2023-04-03T02:33:08;41.67;;;28.90;;
9763;SDS011;4921;43.214;27.936;2023-04-03T02:35:34;39.50;;;27.60;;
9763;SDS011;4921;43.214;27.936;2023-04-03T02:38:02;33.53;;;26.03;;
9763;SDS011;4921;43.214;27.936;2023-04-03T02:40:30;38.93;;;26.73;;
9763;SDS011;4921;43.214;27.936;2023-04-03T02:42:57;35.73;;;24.97;;
9763;SDS011;4921;43.214;27.936;2023-04-03T02:45:24;28.40;;;22.37;;
9763;SDS011;4921;43.214;27.936;2023-04-03T02:47:51;28.07;;;19.30;;
9763;SDS011;4921;43.214;27.936;2023-04-03T02:50:18;20.77;;;15.73;;
9763;SDS011;4921;43.214;27.936;2023-04-03T02:52:45;18.93;;;15.33;;
9763;SDS011;4921;43.214;27.936;2023-04-03T02:55:13;16.97;;;14.70;;
9763;SDS011;4921;43.214;27.936;2023-04-03T02:57:42;16.13;;;13.50;;
9763;SDS011;4921;43.214;27.936;2023-04-03T03:00:10;16.17;;;12.73;;
9763;SDS011;4921;43.214;27.936;2023-04-03T03:02:38;12.63;;;10.43;;
9763;SDS011;4921;43.214;27.936;2023-04-03T03:05:05;14.10;;;10.33;;
9763;SDS011;4921;43.214;27.936;2023-04-03T03:07:33;14.80;;;8.90;;
9763;SDS011;4921;43.214;27.936;2023-04-03T03:10:00;14.67;;;9.47;;
9763;SDS011;4921;43.214;27.936;2023-04-03T03:12:27;9.93;;;8.60;;
9763;SDS011;4921;43.214;27.936;2023-04-03T03:14:55;8.70;;;7.87;;
9763;SDS011;4921;43.214;27.936;2023-04-03T03:17:22;8.33;;;6.97;;
9763;SDS011;4921;43.214;27.936;2023-04-03T03:19:49;7.80;;;7.00;;
9763;SDS011;4921;43.214;27.936;2023-04-03T03:22:16;6.80;;;6.10;;
9763;SDS011;4921;43.214;27.936;2023-04-03T03:24:43;5.67;;;5.17;;
9763;SDS011;4921;43.214;27.936;2023-04-03T03:27:10;6.30;;;4.70;;
9763;SDS011;4921;43.214;27.936;2023-04-03T03:29:37;5.23;;;4.33;;
9763;SDS011;4921;43.214;27.936;2023-04-03T03:32:06;7.97;;;6.00;;
9763;SDS011;4921;43.214;27.936;2023-04-03T03:34:33;8.17;;;7.33;;
9763;SDS011;4921;43.214;27.936;2023-04-03T03:37:00;9.37;;;7.13;;
9763;SDS011;4921;43.214;27.936;2023-04-03T03:39:27;13.27;;;9.23;;
9763;SDS011;4921;43.214;27.936;2023-04-03T03:41:54;13.30;;;9.97;;
9763;SDS011;4921;43.214;27.936;2023-04-03T03:44:21;13.87;;;11.03;;
9763;SDS011;4921;43.214;27.936;2023-04-03T03:46:48;19.23;;;11.43;;
9763;SDS011;4921;43.214;27.936;2023-04-03T03:49:16;16.70;;;11.03;;
9763;SDS011;4921;43.214;27.936;2023-04-03T03:51:43;15.47;;;10.23;;
9763;SDS011;4921;43.214;27.936;2023-04-03T03:54:11;16.07;;;11.07;;
9763;SDS011;4921;43.214;27.936;2023-04-03T03:56:38;10.17;;;8.30;;
9763;SDS011;4921;43.214;27.936;2023-04-03T03:59:05;14.47;;;11.37;;
9763;SDS011;4921;43.214;27.936;2023-04-03T04:01:32;18.60;;;12.40;;
9763;SDS011;4921;43.214;27.936;2023-04-03T04:03:59;13.87;;;10.40;;
9763;SDS011;4921;43.214;27.936;2023-04-03T04:06:27;14.70;;;11.70;;
9763;SDS011;4921;43.214;27.936;2023-04-03T04:08:54;20.07;;;10.13;;
9763;SDS011;4921;43.214;27.936;2023-04-03T04:11:21;13.47;;;10.13;;
9763;SDS011;4921;43.214;27.936;2023-04-03T04:13:48;10.90;;;8.53;;
9763;SDS011;4921;43.214;27.936;2023-04-03T04:16:15;9.60;;;8.10;;
9763;SDS011;4921;43.214;27.936;2023-04-03T04:18:42;13.00;;;8.30;;
9763;SDS011;4921;43.214;27.936;2023-04-03T04:21:09;9.70;;;7.13;;
9763;SDS011;4921;43.214;27.936;2023-04-03T04:23:37;10.50;;;6.60;;
9763;SDS011;4921;43.214;27.936;2023-04-03T04:26:04;9.47;;;5.80;;
9763;SDS011;4921;43.214;27.936;2023-04-03T04:28:31;10.87;;;5.77;;
9763;SDS011;4921;43.214;27.936;2023-04-03T04:30:58;6.73;;;5.27;;
9763;SDS011;4921;43.214;27.936;2023-04-03T04:33:25;8.23;;;5.53;;
9763;SDS011;4921;43.214;27.936;2023-04-03T04:35:52;7.43;;;5.10;;
9763;SDS011;4921;43.214;27.936;2023-04-03T04:38:19;9.03;;;4.93;;
9763;SDS011;4921;43.214;27.936;2023-04-03T04:40:48;7.10;;;5.10;;
9763;SDS011;4921;43.214;27.936;2023-04-03T04:43:15;6.03;;;4.10;;
9763;SDS011;4921;43.214;27.936;2023-04-03T04:45:43;5.93;;;4.23;;
9763;SDS011;4921;43.214;27.936;2023-04-03T04:48:10;5.67;;;3.97;;
9763;SDS011;4921;43.214;27.936;2023-04-03T04:50:37;6.47;;;4.00;;
9763;SDS011;4921;43.214;27.936;2023-04-03T04:53:04;8.50;;;4.00;;
9763;SDS011;4921;43.214;27.936;2023-04-03T04:55:31;6.17;;;3.87;;
9763;SDS011;4921;43.214;27.936;2023-04-03T04:57:59;6.40;;;4.30;;
9763;SDS011;4921;43.214;27.936;2023-04-03T05:00:26;6.30;;;3.60;;
9763;SDS011;4921;43.214;27.936;2023-04-03T05:02:53;3.77;;;3.40;;
9763;SDS011;4921;43.214;27.936;2023-04-03T05:05:20;3.00;;;2.70;;
9763;SDS011;4921;43.214;27.936;2023-04-03T05:07:47;2.50;;;2.20;;
9763;SDS011;4921;43.214;27.936;2023-04-03T05:10:14;2.80;;;2.20;;
9763;SDS011;4921;43.214;27.936;2023-04-03T05:12:41;4.03;;;2.70;;
9763;SDS011;4921;43.214;27.936;2023-04-03T05:15:10;2.37;;;2.10;;
9763;SDS011;4921;43.214;27.936;2023-04-03T05:17:37;2.60;;;2.40;;
9763;SDS011;4921;43.214;27.936;2023-04-03T05:20:04;3.97;;;2.23;;
9763;SDS011;4921;43.214;27.936;2023-04-03T05:22:33;3.17;;;2.10;;
9763;SDS011;4921;43.214;27.936;2023-04-03T05:25:00;10.10;;;2.70;;
9763;SDS011;4921;43.214;27.936;2023-04-03T05:27:27;3.33;;;2.10;;
9763;SDS011;4921;43.214;27.936;2023-04-03T05:29:54;2.30;;;2.10;;
9763;SDS011;4921;43.214;27.936;2023-04-03T05:32:24;5.03;;;2.40;;
9763;SDS011;4921;43.214;27.936;2023-04-03T05:34:52;2.93;;;2.60;;
9763;SDS011;4921;43.214;27.936;2023-04-03T05:37:19;2.60;;;2.37;;
9763;SDS011;4921;43.214;27.936;2023-04-03T05:39:46;7.53;;;2.93;;
9763;SDS011;4921;43.214;27.936;2023-04-03T05:42:13;7.33;;;2.50;;
9763;SDS011;4921;43.214;27.936;2023-04-03T05:44:41;3.80;;;2.60;;
9763;SDS011;4921;43.214;27.936;2023-04-03T05:47:08;3.30;;;2.53;;
9763;SDS011;4921;43.214;27.936;2023-04-03T05:49:36;5.97;;;3.00;;
9763;SDS011;4921;43.214;27.936;2023-04-03T05:52:05;3.43;;;3.00;;
9763;SDS011;4921;43.214;27.936;2023-04-03T05:54:33;7.73;;;2.70;;
9763;SDS011;4921;43.214;27.936;2023-04-03T05:57:00;3.53;;;2.40;;
9763;SDS011;4921;43.214;27.936;2023-04-03T05:59:27;2.30;;;2.00;;
9763;SDS011;4921;43.214;27.936;2023-04-03T06:01:54;3.57;;;2.50;;
9763;SDS011;4921;43.214;27.936;2023-04-03T06:04:21;2.40;;;2.00;;
9763;SDS011;4921;43.214;27.936;2023-04-03T06:06:50;2.73;;;2.53;;
9763;SDS011;4921;43.214;27.936;2023-04-03T06:09:18;2.67;;;2.30;;
9763;SDS011;4921;43.214;27.936;2023-04-03T06:11:47;5.10;;;2.40;;
9763;SDS011;4921;43.214;27.936;2023-04-03T06:14:14;2.23;;;2.10;;
9763;SDS011;4921;43.214;27.936;2023-04-03T06:16:41;2.20;;;2.10;;
9763;SDS011;4921;43.214;27.936;2023-04-03T06:19:08;4.20;;;2.40;;
9763;SDS011;4921;43.214;27.936;2023-04-03T06:21:36;4.07;;;1.80;;
9763;SDS011;4921;43.214;27.936;2023-04-03T06:24:06;2.50;;;2.30;;
9763;SDS011;4921;43.214;27.936;2023-04-03T06:26:34;2.00;;;1.80;;
9763;SDS011;4921;43.214;27.936;2023-04-03T06:29:01;4.10;;;1.97;;
9763;SDS011;4921;43.214;27.936;2023-04-03T06:31:28;3.43;;;2.53;;
9763;SDS011;4921;43.214;27.936;2023-04-03T06:33:55;3.57;;;2.70;;
9763;SDS011;4921;43.214;27.936;2023-04-03T06:36:22;3.00;;;2.70;;
9763;SDS011;4921;43.214;27.936;2023-04-03T06:38:49;3.43;;;2.53;;
9763;SDS011;4921;43.214;27.936;2023-04-03T06:41:18;3.63;;;2.53;;
9763;SDS011;4921;43.214;27.936;2023-04-03T06:43:45;2.53;;;2.33;;
9763;SDS011;4921;43.214;27.936;2023-04-03T06:46:14;2.70;;;2.50;;
9763;SDS011;4921;43.214;27.936;2023-04-03T06:48:43;4.83;;;3.03;;
9763;SDS011;4921;43.214;27.936;2023-04-03T06:51:14;6.30;;;3.77;;
9763;SDS011;4921;43.214;27.936;2023-04-03T06:53:45;9.20;;;4.43;;
9763;SDS011;4921;43.214;27.936;2023-04-03T06:56:12;7.07;;;4.27;;
9763;SDS011;4921;43.214;27.936;2023-04-03T06:58:41;5.60;;;4.13;;
9763;SDS011;4921;43.214;27.936;2023-04-03T07:01:09;6.43;;;3.70;;
9763;SDS011;4921;43.214;27.936;2023-04-03T07:03:37;8.17;;;3.97;;
9763;SDS011;4921;43.214;27.936;2023-04-03T07:06:05;5.43;;;3.40;;
9763;SDS011;4921;43.214;27.936;2023-04-03T07:08:33;9.17;;;3.53;;
9763;SDS011;4921;43.214;27.936;2023-04-03T07:11:00;6.37;;;3.10;;
9763;SDS011;4921;43.214;27.936;2023-04-03T07:13:28;3.30;;;2.67;;
9763;SDS011;4921;43.214;27.936;2023-04-03T07:15:56;5.43;;;2.73;;
9763;SDS011;4921;43.214;27.936;2023-04-03T07:18:24;3.23;;;2.67;;
9763;SDS011;4921;43.214;27.936;2023-04-03T07:20:51;4.50;;;2.93;;
9763;SDS011;4921;43.214;27.936;2023-04-03T07:23:18;3.33;;;3.03;;
9763;SDS011;4921;43.214;27.936;2023-04-03T07:25:46;2.87;;;2.03;;
9763;SDS011;4921;43.214;27.936;2023-04-03T07:28:14;5.20;;;2.33;;
9763;SDS011;4921;43.214;27.936;2023-04-03T07:30:42;2.30;;;2.00;;
9763;SDS011;4921;43.214;27.936;2023-04-03T07:33:12;2.27;;;2.07;;
9763;SDS011;4921;43.214;27.936;2023-04-03T07:35:40;7.63;;;3.60;;
9763;SDS011;4921;43.214;27.936;2023-04-03T07:38:08;8.10;;;3.27;;
9763;SDS011;4921;43.214;27.936;2023-04-03T07:40:36;5.37;;;3.03;;
9763;SDS011;4921;43.214;27.936;2023-04-03T07:43:05;6.43;;;3.30;;
9763;SDS011;4921;43.214;27.936;2023-04-03T07:45:33;3.43;;;3.10;;
9763;SDS011;4921;43.214;27.936;2023-04-03T07:48:02;4.90;;;3.40;;
9763;SDS011;4921;43.214;27.936;2023-04-03T07:50:31;6.17;;;3.47;;
9763;SDS011;4921;43.214;27.936;2023-04-03T07:52:58;4.67;;;3.43;;
9763;SDS011;4921;43.214;27.936;2023-04-03T07:55:25;3.90;;;3.60;;
9763;SDS011;4921;43.214;27.936;2023-04-03T07:57:52;4.50;;;3.27;;
9763;SDS011;4921;43.214;27.936;2023-04-03T08:00:20;3.57;;;3.27;;
9763;SDS011;4921;43.214;27.936;2023-04-03T08:02:48;2.97;;;2.70;;
9763;SDS011;4921;43.214;27.936;2023-04-03T08:05:16;3.40;;;2.60;;
9763;SDS011;4921;43.214;27.936;2023-04-03T08:07:45;4.03;;;2.87;;
9763;SDS011;4921;43.214;27.936;2023-04-03T08:10:12;3.47;;;2.83;;
9763;SDS011;4921;43.214;27.936;2023-04-03T08:12:40;5.13;;;3.43;;
9763;SDS011;4921;43.214;27.936;2023-04-03T08:15:08;3.57;;;3.13;;
9763;SDS011;4921;43.214;27.936;2023-04-03T08:17:35;3.50;;;3.20;;
9763;SDS011;4921;43.214;27.936;2023-04-03T08:20:03;3.57;;;3.03;;
9763;SDS011;4921;43.214;27.936;2023-04-03T08:22:31;3.27;;;2.93;;
9763;SDS011;4921;43.214;27.936;2023-04-03T08:25:00;3.43;;;3.23;;
9763;SDS011;4921;43.214;27.936;2023-04-03T08:27:27;4.00;;;3.30;;
9763;SDS011;4921;43.214;27.936;2023-04-03T08:29:54;4.17;;;3.77;;
9763;SDS011;4921;43.214;27.936;2023-04-03T08:32:22;4.53;;;3.60;;
9763;SDS011;4921;43.214;27.936;2023-04-03T08:34:49;4.10;;;3.53;;
9763;SDS011;4921;43.214;27.936;2023-04-03T08:37:16;4.33;;;3.60;;
9763;SDS011;4921;43.214;27.936;2023-04-03T08:39:44;3.53;;;3.23;;
9763;SDS011;4921;43.214;27.936;2023-04-03T08:42:16;3.67;;;3.23;;
9763;SDS011;4921;43.214;27.936;2023-04-03T08:44:57;3.63;;;3.33;;
9763;SDS011;4921;43.214;27.936;2023-04-03T08:47:28;3.87;;;3.57;;
9763;SDS011;4921;43.214;27.936;2023-04-03T08:50:05;4.27;;;3.87;;
9763;SDS011;4921;43.214;27.936;2023-04-03T08:52:34;4.33;;;3.80;;
9763;SDS011;4921;43.214;27.936;2023-04-03T08:55:05;4.43;;;4.07;;
9763;SDS011;4921;43.214;27.936;2023-04-03T08:57:41;4.30;;;3.90;;
9763;SDS011;4921;43.214;27.936;2023-04-03T09:00:15;4.30;;;3.83;;
9763;SDS011;4921;43.214;27.936;2023-04-03T09:02:44;5.73;;;3.73;;
9763;SDS011;4921;43.214;27.936;2023-04-03T09:05:14;5.43;;;4.37;;
9763;SDS011;4921;43.214;27.936;2023-04-03T09:07:43;5.27;;;4.07;;
9763;SDS011;4921;43.214;27.936;2023-04-03T09:10:13;6.50;;;4.73;;
9763;SDS011;4921;43.214;27.936;2023-04-03T09:12:44;4.73;;;4.33;;
9763;SDS011;4921;43.214;27.936;2023-04-03T09:15:18;5.53;;;4.07;;
9763;SDS011;4921;43.214;27.936;2023-04-03T09:17:50;4.60;;;4.20;;
9763;SDS011;4921;43.214;27.936;2023-04-03T09:20:25;5.63;;;4.50;;
9763;SDS011;4921;43.214;27.936;2023-04-03T09:23:00;5.40;;;4.93;;
9763;SDS011;4921;43.214;27.936;2023-04-03T09:25:31;4.50;;;4.10;;
9763;SDS011;4921;43.214;27.936;2023-04-03T09:28:04;5.07;;;4.57;;
9763;SDS011;4921;43.214;27.936;2023-04-03T09:30:35;4.87;;;4.57;;
9763;SDS011;4921;43.214;27.936;2023-04-03T09:33:03;4.90;;;4.43;;
9763;SDS011;4921;43.214;27.936;2023-04-03T09:35:32;6.83;;;4.83;;
9763;SDS011;4921;43.214;27.936;2023-04-03T09:38:02;5.53;;;5.13;;
9763;SDS011;4921;43.214;27.936;2023-04-03T09:40:43;4.90;;;4.40;;
9763;SDS011;4921;43.214;27.936;2023-04-03T09:43:26;4.90;;;4.40;;
9763;SDS011;4921;43.214;27.936;2023-04-03T09:45:56;4.67;;;4.27;;
9763;SDS011;4921;43.214;27.936;2023-04-03T09:48:49;5.17;;;4.77;;
9763;SDS011;4921;43.214;27.936;2023-04-03T09:51:17;5.53;;;5.03;;
9763;SDS011;4921;43.214;27.936;2023-04-03T09:53:44;5.00;;;4.67;;
9763;SDS011;4921;43.214;27.936;2023-04-03T09:56:22;8.07;;;5.10;;
9763;SDS011;4921;43.214;27.936;2023-04-03T09:59:02;5.60;;;5.00;;
9763;SDS011;4921;43.214;27.936;2023-04-03T10:01:42;5.60;;;5.10;;
9763;SDS011;4921;43.214;27.936;2023-04-03T10:04:13;6.33;;;5.20;;
9763;SDS011;4921;43.214;27.936;2023-04-03T10:06:42;6.00;;;5.43;;
9763;SDS011;4921;43.214;27.936;2023-04-03T10:09:19;5.63;;;5.13;;
9763;SDS011;4921;43.214;27.936;2023-04-03T10:11:57;5.33;;;4.73;;
9763;SDS011;4921;43.214;27.936;2023-04-03T10:14:31;4.87;;;4.47;;
9763;SDS011;4921;43.214;27.936;2023-04-03T10:17:02;5.80;;;5.30;;
9763;SDS011;4921;43.214;27.936;2023-04-03T10:19:45;5.70;;;5.10;;
9763;SDS011;4921;43.214;27.936;2023-04-03T10:22:22;6.57;;;4.33;;
9763;SDS011;4921;43.214;27.936;2023-04-03T10:25:04;4.40;;;4.00;;
9763;SDS011;4921;43.214;27.936;2023-04-03T10:27:44;4.83;;;4.43;;
9763;SDS011;4921;43.214;27.936;2023-04-03T10:30:24;5.10;;;4.47;;
9763;SDS011;4921;43.214;27.936;2023-04-03T10:33:02;4.97;;;4.33;;
9763;SDS011;4921;43.214;27.936;2023-04-03T10:35:54;4.60;;;4.20;;
9763;SDS011;4921;43.214;27.936;2023-04-03T10:38:31;3.93;;;3.63;;
9763;SDS011;4921;43.214;27.936;2023-04-03T10:41:04;5.53;;;4.33;;
9763;SDS011;4921;43.214;27.936;2023-04-03T10:43:40;4.20;;;3.80;;
9763;SDS011;4921;43.214;27.936;2023-04-03T10:46:14;5.13;;;4.20;;
9763;SDS011;4921;43.214;27.936;2023-04-03T10:48:53;4.80;;;4.13;;
9763;SDS011;4921;43.214;27.936;2023-04-03T10:51:31;4.70;;;3.60;;
9763;SDS011;4921;43.214;27.936;2023-04-03T10:54:08;4.10;;;3.17;;
9763;SDS011;4921;43.214;27.936;2023-04-03T10:56:39;4.20;;;3.90;;
9763;SDS011;4921;43.214;27.936;2023-04-03T10:59:13;5.37;;;3.37;;
9763;SDS011;4921;43.214;27.936;2023-04-03T11:01:48;3.90;;;3.43;;
9763;SDS011;4921;43.214;27.936;2023-04-03T11:04:19;3.63;;;3.33;;
9763;SDS011;4921;43.214;27.936;2023-04-03T11:06:50;4.90;;;3.13;;
9763;SDS011;4921;43.214;27.936;2023-04-03T11:09:25;3.30;;;2.90;;
9763;SDS011;4921;43.214;27.936;2023-04-03T11:11:55;3.73;;;2.97;;
9763;SDS011;4921;43.214;27.936;2023-04-03T11:14:27;3.67;;;2.90;;
9763;SDS011;4921;43.214;27.936;2023-04-03T11:17:11;3.50;;;3.20;;
9763;SDS011;4921;43.214;27.936;2023-04-03T11:19:47;3.10;;;2.80;;
9763;SDS011;4921;43.214;27.936;2023-04-03T11:22:22;3.37;;;3.17;;
9763;SDS011;4921;43.214;27.936;2023-04-03T11:24:55;3.47;;;3.20;;
9763;SDS011;4921;43.214;27.936;2023-04-03T11:27:30;4.07;;;3.67;;
9763;SDS011;4921;43.214;27.936;2023-04-03T11:30:05;3.43;;;3.13;;
9763;SDS011;4921;43.214;27.936;2023-04-03T11:32:48;4.67;;;3.30;;
9763;SDS011;4921;43.214;27.936;2023-04-03T11:35:28;4.13;;;3.43;;
9763;SDS011;4921;43.214;27.936;2023-04-03T11:37:56;3.43;;;3.20;;
9763;SDS011;4921;43.214;27.936;2023-04-03T11:40:26;4.00;;;3.57;;
9763;SDS011;4921;43.214;27.936;2023-04-03T11:43:02;3.53;;;3.23;;
9763;SDS011;4921;43.214;27.936;2023-04-03T11:45:36;7.40;;;6.43;;
9763;SDS011;4921;43.214;27.936;2023-04-03T11:57:14;6.70;;;3.20;;
9763;SDS011;4921;43.214;27.936;2023-04-03T12:03:30;3.30;;;3.10;;
9763;SDS011;4921;43.214;27.936;2023-04-03T12:09:00;4.60;;;3.83;;
9763;SDS011;4921;43.214;27.936;2023-04-03T12:11:28;6.37;;;4.10;;
9763;SDS011;4921;43.214;27.936;2023-04-03T12:14:04;3.60;;;3.30;;
9763;SDS011;4921;43.214;27.936;2023-04-03T12:16:32;7.27;;;3.80;;
9763;SDS011;4921;43.214;27.936;2023-04-03T12:19:34;4.17;;;3.77;;
9763;SDS011;4921;43.214;27.936;2023-04-03T12:22:06;4.63;;;4.23;;
9763;SDS011;4921;43.214;27.936;2023-04-03T12:24:46;6.67;;;4.90;;
9763;SDS011;4921;43.214;27.936;2023-04-03T12:27:20;5.10;;;4.60;;
9763;SDS011;4921;43.214;27.936;2023-04-03T12:29:55;7.20;;;4.87;;
9763;SDS011;4921;43.214;27.936;2023-04-03T12:32:41;5.70;;;5.20;;
9763;SDS011;4921;43.214;27.936;2023-04-03T12:35:24;8.57;;;5.40;;
9763;SDS011;4921;43.214;27.936;2023-04-03T12:41:23;9.13;;;6.30;;
9763;SDS011;4921;43.214;27.936;2023-04-03T12:44:09;6.60;;;5.93;;
9763;SDS011;4921;43.214;27.936;2023-04-03T12:46:48;6.97;;;6.27;;
9763;SDS011;4921;43.214;27.936;2023-04-03T12:49:37;6.13;;;5.53;;
9763;SDS011;4921;43.214;27.936;2023-04-03T12:52:15;6.20;;;5.30;;
9763;SDS011;4921;43.214;27.936;2023-04-03T12:54:46;6.13;;;5.43;;
9763;SDS011;4921;43.214;27.936;2023-04-03T12:57:18;4.03;;;3.73;;
9763;SDS011;4921;43.214;27.936;2023-04-03T12:59:46;4.43;;;4.07;;
9763;SDS011;4921;43.214;27.936;2023-04-03T13:02:17;5.23;;;4.77;;
9763;SDS011;4921;43.214;27.936;2023-04-03T13:04:49;8.10;;;4.80;;
9763;SDS011;4921;43.214;27.936;2023-04-03T13:07:23;4.97;;;4.47;;
9763;SDS011;4921;43.214;27.936;2023-04-03T13:10:02;5.40;;;4.90;;
9763;SDS011;4921;43.214;27.936;2023-04-03T13:12:46;6.63;;;5.17;;
9763;SDS011;4921;43.214;27.936;2023-04-03T13:15:16;8.27;;;5.07;;
9763;SDS011;4921;43.214;27.936;2023-04-03T13:17:44;5.93;;;5.33;;
9763;SDS011;4921;43.214;27.936;2023-04-03T13:20:14;5.23;;;4.57;;
9763;SDS011;4921;43.214;27.936;2023-04-03T13:22:47;7.83;;;4.70;;
9763;SDS011;4921;43.214;27.936;2023-04-03T13:25:16;5.53;;;4.93;;
9763;SDS011;4921;43.214;27.936;2023-04-03T13:27:47;6.93;;;5.77;;
9763;SDS011;4921;43.214;27.936;2023-04-03T13:30:19;9.50;;;5.23;;
9763;SDS011;4921;43.214;27.936;2023-04-03T13:32:49;6.27;;;5.47;;
9763;SDS011;4921;43.214;27.936;2023-04-03T13:35:30;6.67;;;5.30;;
9763;SDS011;4921;43.214;27.936;2023-04-03T13:38:00;5.93;;;5.10;;
9763;SDS011;4921;43.214;27.936;2023-04-03T13:40:28;7.10;;;5.60;;
9763;SDS011;4921;43.214;27.936;2023-04-03T13:43:01;6.40;;;5.73;;
9763;SDS011;4921;43.214;27.936;2023-04-03T13:45:32;5.97;;;5.37;;
9763;SDS011;4921;43.214;27.936;2023-04-03T13:48:07;8.77;;;6.13;;
9763;SDS011;4921;43.214;27.936;2023-04-03T13:50:55;7.47;;;5.27;;
9763;SDS011;4921;43.214;27.936;2023-04-03T13:53:25;9.63;;;5.93;;
9763;SDS011;4921;43.214;27.936;2023-04-03T13:55:55;5.80;;;5.20;;
9763;SDS011;4921;43.214;27.936;2023-04-03T13:58:26;5.93;;;5.00;;
9763;SDS011;4921;43.214;27.936;2023-04-03T14:00:55;8.13;;;5.53;;
9763;SDS011;4921;43.214;27.936;2023-04-03T14:03:36;6.77;;;5.30;;
9763;SDS011;4921;43.214;27.936;2023-04-03T14:06:08;10.77;;;5.60;;
9763;SDS011;4921;43.214;27.936;2023-04-03T14:08:37;7.03;;;5.63;;
9763;SDS011;4921;43.214;27.936;2023-04-03T14:11:04;5.97;;;5.37;;
9763;SDS011;4921;43.214;27.936;2023-04-03T14:13:32;9.20;;;5.97;;
9763;SDS011;4921;43.214;27.936;2023-04-03T14:15:59;7.73;;;5.73;;
9763;SDS011;4921;43.214;27.936;2023-04-03T14:18:26;9.20;;;7.03;;
9763;SDS011;4921;43.214;27.936;2023-04-03T14:20:53;10.77;;;8.60;;
9763;SDS011;4921;43.214;27.936;2023-04-03T14:23:20;6.50;;;5.87;;
9763;SDS011;4921;43.214;27.936;2023-04-03T14:25:47;6.80;;;6.10;;
9763;SDS011;4921;43.214;27.936;2023-04-03T14:28:16;6.50;;;5.70;;
9763;SDS011;4921;43.214;27.936;2023-04-03T14:30:46;5.77;;;5.17;;
9763;SDS011;4921;43.214;27.936;2023-04-03T14:33:14;8.10;;;6.30;;
9763;SDS011;4921;43.214;27.936;2023-04-03T14:35:45;7.47;;;5.47;;
9763;SDS011;4921;43.214;27.936;2023-04-03T14:38:20;10.03;;;6.50;;
9763;SDS011;4921;43.214;27.936;2023-04-03T14:40:50;7.03;;;6.27;;
9763;SDS011;4921;43.214;27.936;2023-04-03T14:43:18;6.63;;;5.93;;
9763;SDS011;4921;43.214;27.936;2023-04-03T14:45:47;7.23;;;6.03;;
9763;SDS011;4921;43.214;27.936;2023-04-03T14:48:15;7.23;;;5.77;;
9763;SDS011;4921;43.214;27.936;2023-04-03T14:50:44;7.23;;;6.50;;
9763;SDS011;4921;43.214;27.936;2023-04-03T14:53:11;7.43;;;6.60;;
9763;SDS011;4921;43.214;27.936;2023-04-03T14:55:40;7.03;;;6.40;;
9763;SDS011;4921;43.214;27.936;2023-04-03T14:58:08;10.70;;;6.50;;
9763;SDS011;4921;43.214;27.936;2023-04-03T15:00:41;6.90;;;6.30;;
9763;SDS011;4921;43.214;27.936;2023-04-03T15:03:13;7.53;;;6.60;;
9763;SDS011;4921;43.214;27.936;2023-04-03T15:05:41;7.47;;;6.70;;
9763;SDS011;4921;43.214;27.936;2023-04-03T15:08:13;7.03;;;6.37;;
9763;SDS011;4921;43.214;27.936;2023-04-03T15:10:45;6.80;;;6.10;;
9763;SDS011;4921;43.214;27.936;2023-04-03T15:13:12;6.93;;;6.23;;
9763;SDS011;4921;43.214;27.936;2023-04-03T15:15:39;7.17;;;6.07;;
9763;SDS011;4921;43.214;27.936;2023-04-03T15:18:09;7.03;;;5.80;;
9763;SDS011;4921;43.214;27.936;2023-04-03T15:20:41;6.50;;;5.90;;
9763;SDS011;4921;43.214;27.936;2023-04-03T15:23:09;5.87;;;5.17;;
9763;SDS011;4921;43.214;27.936;2023-04-03T15:25:37;5.53;;;5.03;;
9763;SDS011;4921;43.214;27.936;2023-04-03T15:28:05;6.00;;;5.03;;
9763;SDS011;4921;43.214;27.936;2023-04-03T15:30:32;5.50;;;5.00;;
9763;SDS011;4921;43.214;27.936;2023-04-03T15:33:05;5.63;;;5.03;;
9763;SDS011;4921;43.214;27.936;2023-04-03T15:35:33;5.73;;;5.17;;